Time;durP1;ratioP1;P1;durP2;ratioP2;P2;SDS_P1;SDS_P2;PMS_P1;PMS_P2;Temp;Humidity;BMP_temperature;BMP_pressure;BME280_temperature;BME280_humidity;BME280_pressure;Samples;Min_cycle;Max_cycle;Signal;HPM_P1;HPM_P2
2023/02/25 00:02:17;;;;;;;36.13;6.85;;;;;;;2.14;100.00;94892.34;5072944;28;20547;-74
2023/02/25 00:04:43;;;;;;;34.80;5.25;;;;;;;1.91;100.00;94894.13;5073002;28;20040;-74
2023/02/25 00:07:10;;;;;;;31.55;5.60;;;;;;;1.86;100.00;94907.66;5072488;28;20036;-74
2023/02/25 00:09:38;;;;;;;35.60;5.15;;;;;;;1.81;100.00;94910.44;5073105;28;20041;-74
2023/02/25 00:12:05;;;;;;;31.88;5.28;;;;;;;1.73;100.00;94909.25;5072772;28;20040;-74
2023/02/25 00:14:32;;;;;;;37.83;4.88;;;;;;;1.53;100.00;94904.25;5073379;28;20044;-74
2023/02/25 00:16:58;;;;;;;25.55;3.90;;;;;;;1.50;100.00;94899.47;5073121;28;20052;-75
2023/02/25 00:19:25;;;;;;;34.42;4.30;;;;;;;1.45;100.00;94896.88;5072396;28;20041;-74
2023/02/25 00:21:52;;;;;;;38.42;5.40;;;;;;;1.35;100.00;94897.06;5072654;28;20047;-74
2023/02/25 00:24:18;;;;;;;30.85;4.18;;;;;;;1.36;100.00;94898.63;5072549;28;20055;-74
2023/02/25 00:26:46;;;;;;;36.03;4.30;;;;;;;1.36;100.00;94898.63;5073148;28;20047;-74
2023/02/25 00:29:13;;;;;;;30.00;3.83;;;;;;;1.42;100.00;94905.53;5072404;28;20048;-72
2023/02/25 00:31:39;;;;;;;24.73;3.28;;;;;;;1.43;100.00;94909.78;5074045;28;20037;-71
2023/02/25 00:34:06;;;;;;;31.67;3.65;;;;;;;1.21;100.00;94913.13;5074588;28;20471;-73
2023/02/25 00:36:32;;;;;;;46.53;4.70;;;;;;;1.21;100.00;94908.56;5074675;28;20044;-72
2023/02/25 00:38:59;;;;;;;11.88;2.45;;;;;;;1.05;100.00;94909.91;5059354;28;20044;-72
2023/02/25 00:41:27;;;;;;;31.25;4.15;;;;;;;1.05;100.00;94909.91;5072758;28;20052;-72
2023/02/25 00:43:57;;;;;;;61.97;5.68;;;;;;;1.03;100.00;94915.53;5072386;28;20040;-72
2023/02/25 00:46:23;;;;;;;32.35;4.07;;;;;;;0.88;100.00;94921.13;5072268;28;20048;-72
2023/02/25 00:48:50;;;;;;;34.88;4.13;;;;;;;0.78;100.00;94916.75;5072488;28;20098;-72
2023/02/25 00:51:19;;;;;;;41.63;5.47;;;;;;;0.72;100.00;94923.25;5071593;28;20060;-72
2023/02/25 00:53:46;;;;;;;51.28;5.93;;;;;;;0.63;100.00;94930.38;5072380;28;20052;-72
2023/02/25 00:56:14;;;;;;;31.98;5.05;;;;;;;0.56;100.00;94924.56;5071739;28;20507;-74
2023/02/25 00:58:42;;;;;;;46.33;5.32;;;;;;;0.49;100.00;94918.78;5072162;28;20055;-73
2023/02/25 01:01:19;;;;;;;37.33;5.28;;;;;;;0.38;100.00;94926.16;5071578;28;20393;-73
2023/02/25 01:03:45;;;;;;;65.07;6.90;;;;;;;0.31;100.00;94930.25;5063747;28;20451;-74
2023/02/25 01:06:12;;;;;;;32.63;5.25;;;;;;;0.15;100.00;94925.09;5071761;28;20047;-72
2023/02/25 01:08:38;;;;;;;41.97;5.82;;;;;;;0.20;100.00;94929.59;5072087;28;20048;-72
2023/02/25 01:11:12;;;;;;;44.17;6.15;;;;;;;0.19;100.00;94931.47;5071434;28;20522;-74
2023/02/25 01:13:38;;;;;;;40.95;6.50;;;;;;;0.20;100.00;94930.38;5072100;28;20054;-74
2023/02/25 01:16:11;;;;;;;38.40;6.50;;;;;;;0.25;100.00;94940.22;5071485;28;20040;-72
2023/02/25 01:18:39;;;;;;;51.53;7.07;;;;;;;0.37;100.00;94942.50;5072101;28;20045;-72
2023/02/25 01:21:06;;;;;;;21.77;5.40;;;;;;;0.46;100.00;94941.56;5071801;28;20114;-72
2023/02/25 01:23:32;;;;;;;40.38;6.45;;;;;;;0.52;100.00;94936.91;5071607;28;20483;-72
2023/02/25 01:25:59;;;;;;;45.08;7.05;;;;;;;0.55;100.00;94941.72;5071716;28;20549;-72
2023/02/25 01:28:27;;;;;;;34.97;6.40;;;;;;;0.53;100.00;94951.94;5071375;28;20036;-73
2023/02/25 01:30:54;;;;;;;36.67;6.55;;;;;;;0.51;100.00;94954.09;5071646;28;20044;-72
2023/02/25 01:33:20;;;;;;;49.17;7.32;;;;;;;0.52;100.00;94956.50;5071242;28;20040;-74
2023/02/25 01:35:48;;;;;;;29.10;6.32;;;;;;;0.59;100.00;94956.13;5071055;28;20041;-72
2023/02/25 01:38:14;;;;;;;42.40;7.53;;;;;;;0.49;100.00;94941.00;5071261;28;20044;-72
2023/02/25 01:40:41;;;;;;;35.20;7.03;;;;;;;0.52;100.00;94950.31;5071431;28;20725;-72
2023/02/25 01:43:14;;;;;;;43.92;7.88;;;;;;;0.51;100.00;94943.38;5070977;28;20044;-72
2023/02/25 01:45:42;;;;;;;;;;;;;;;0.50;100.00;94941.78;5071946;28;20412;-72
2023/02/25 01:48:13;;;;;;;42.03;7.88;;;;;;;0.52;100.00;94951.13;5070982;28;20364;-72
2023/02/25 01:50:45;;;;;;;36.67;6.72;;;;;;;0.58;100.00;94946.50;5071240;28;20053;-72
2023/02/25 01:53:15;;;;;;;45.83;7.90;;;;;;;0.50;100.00;94947.94;5070855;28;20044;-72
2023/02/25 01:55:42;;;;;;;38.22;6.95;;;;;;;0.45;100.00;94952.56;5071204;28;20155;-74
2023/02/25 01:58:12;;;;;;;38.28;7.22;;;;;;;0.40;100.00;94941.91;5070553;28;20051;-73
2023/02/25 02:00:39;;;;;;;45.25;7.95;;;;;;;0.37;100.00;94947.88;5070721;28;20098;-72
2023/02/25 02:03:14;;;;;;;43.53;8.25;;;;;;;0.39;100.00;94948.38;5069516;28;20047;-74
2023/02/25 02:05:54;;;;;;;44.28;8.10;;;;;;;0.42;100.00;94947.78;5070979;28;20044;-72
2023/02/25 02:08:23;;;;;;;46.78;7.95;;;;;;;0.35;100.00;94950.00;5070577;28;20060;-72
2023/02/25 02:10:50;;;;;;;43.72;8.57;;;;;;;0.34;100.00;94945.75;5070835;28;20412;-72
2023/02/25 02:13:16;;;;;;;52.60;8.80;;;;;;;0.28;100.00;94949.56;5070018;28;20048;-74
2023/02/25 02:15:51;;;;;;;41.90;8.30;;;;;;;0.08;100.00;94953.28;5070866;28;20045;-74
2023/02/25 02:18:19;;;;;;;45.67;9.30;;;;;;;-0.08;100.00;94958.81;5070233;28;20052;-74
2023/02/25 02:20:58;;;;;;;54.35;9.48;;;;;;;-0.12;100.00;94962.34;5070764;28;20044;-74
2023/02/25 02:23:51;;;;;;;50.90;9.27;;;;;;;-0.19;100.00;94948.53;5070069;28;20041;-74
2023/02/25 02:26:58;;;;;;;48.83;8.95;;;;;;;-0.22;100.00;94951.75;5050235;28;20037;-74
2023/02/25 02:29:56;;;;;;;52.67;9.32;;;;;;;-0.21;100.00;94948.00;5050218;28;20051;-74
2023/02/25 02:32:32;;;;;;;38.67;9.32;;;;;;;-0.17;100.00;94954.38;5038171;28;20036;-74
2023/02/25 02:35:08;;;;;;;48.72;10.32;;;;;;;-0.20;100.00;94950.41;5070155;28;20044;-74
2023/02/25 02:37:42;;;;;;;52.40;10.68;;;;;;;-0.21;100.00;94950.66;5070314;28;20048;-74
2023/02/25 02:40:19;;;;;;;55.38;10.35;;;;;;;-0.21;100.00;94956.81;5069953;28;20048;-74
2023/02/25 02:43:01;;;;;;;56.88;10.93;;;;;;;-0.16;100.00;94946.06;5070160;28;20044;-74
2023/02/25 02:45:39;;;;;;;60.90;9.82;;;;;;;-0.12;100.00;94965.81;5070276;28;20036;-72
2023/02/25 02:48:09;;;;;;;69.22;10.90;;;;;;;-0.14;100.00;94959.97;5069892;28;20033;-72
2023/02/25 02:50:40;;;;;;;55.10;9.77;;;;;;;-0.19;100.00;94952.00;5070135;28;20074;-74
2023/02/25 02:53:10;;;;;;;54.53;10.07;;;;;;;-0.18;100.00;94958.13;5069765;28;20412;-74
2023/02/25 02:55:41;;;;;;;58.78;10.77;;;;;;;-0.19;100.00;94952.00;5070357;28;20051;-74
2023/02/25 02:58:10;;;;;;;36.28;9.75;;;;;;;-0.09;100.00;94969.81;5069359;28;20648;-73
2023/02/25 03:00:38;;;;;;;55.58;10.93;;;;;;;-0.11;100.00;94970.06;5070134;28;20051;-72
2023/02/25 03:03:10;;;;;;;47.22;11.40;;;;;;;-0.12;100.00;94978.41;5077799;28;20045;-75
2023/02/25 03:05:39;;;;;;;43.47;10.93;;;;;;;-0.15;100.00;94955.69;5070101;28;20048;-74
2023/02/25 03:08:10;;;;;;;38.55;10.02;;;;;;;-0.16;100.00;94963.97;5069773;28;20047;-75
2023/02/25 03:10:37;;;;;;;34.50;9.93;;;;;;;-0.14;100.00;94969.88;5070070;28;20110;-74
2023/02/25 03:13:04;;;;;;;49.33;11.23;;;;;;;-0.11;100.00;94969.28;5069808;28;20060;-74
2023/02/25 03:15:32;;;;;;;48.50;10.80;;;;;;;-0.12;100.00;94965.00;5070128;28;20044;-74
2023/02/25 03:18:03;;;;;;;32.03;9.32;;;;;;;-0.10;100.00;94970.91;5070450;28;20044;-74
2023/02/25 03:20:38;;;;;;;46.42;10.38;;;;;;;-0.08;100.00;94977.53;5070024;28;20697;-75
2023/02/25 03:23:10;;;;;;;47.63;10.98;;;;;;;-0.06;100.00;94971.91;5069982;28;20041;-74
2023/02/25 03:25:46;;;;;;;45.35;9.50;;;;;;;0.00;100.00;94984.16;5071051;28;20048;-74
2023/02/25 03:28:29;;;;;;;45.65;8.52;;;;;;;0.06;100.00;94977.69;5071656;28;20047;-74
2023/02/25 03:31:05;;;;;;;35.42;9.20;;;;;;;0.03;100.00;94975.56;5075523;28;20036;-74
2023/02/25 03:33:38;;;;;;;37.08;8.73;;;;;;;0.03;100.00;94974.75;5077408;28;20044;-74
2023/02/25 03:36:10;;;;;;;45.25;8.18;;;;;;;0.01;100.00;94977.72;5077949;28;20045;-74
2023/02/25 03:38:41;;;;;;;47.40;8.23;;;;;;;-0.01;100.00;94980.66;5078305;28;20040;-74
2023/02/25 03:41:10;;;;;;;38.28;6.97;;;;;;;-0.01;100.00;94969.19;5076858;28;20044;-74
2023/02/25 03:43:41;;;;;;;47.90;8.07;;;;;;;-0.04;100.00;94983.13;5071814;28;20055;-74
2023/02/25 03:46:08;;;;;;;45.95;8.02;;;;;;;-0.07;100.00;94983.69;5069869;28;20052;-74
2023/02/25 03:48:37;;;;;;;44.03;7.90;;;;;;;-0.13;100.00;94996.34;5069804;28;20048;-74
2023/02/25 03:51:06;;;;;;;54.05;8.32;;;;;;;-0.16;100.00;94996.09;5069204;28;20051;-73
2023/02/25 03:53:34;;;;;;;39.00;6.82;;;;;;;-0.18;100.00;95003.63;5069253;28;20047;-74
2023/02/25 03:56:04;;;;;;;38.10;8.00;;;;;;;-0.19;100.00;94999.34;5069327;28;20554;-74
2023/02/25 03:58:31;;;;;;;37.70;6.97;;;;;;;-0.22;100.00;95007.94;5069232;28;20047;-74
2023/02/25 04:01:01;;;;;;;38.33;6.60;;;;;;;-0.22;100.00;95000.69;5069804;28;20044;-74
2023/02/25 04:03:27;;;;;;;34.67;6.57;;;;;;;-0.27;100.00;95004.22;5069171;28;20040;-74
2023/02/25 04:05:54;;;;;;;53.13;7.80;;;;;;;-0.23;100.00;95017.03;5069251;28;20515;-74
2023/02/25 04:08:22;;;;;;;46.05;7.78;;;;;;;-0.19;100.00;95018.06;5069107;28;20040;-74
2023/02/25 04:10:48;;;;;;;43.40;8.13;;;;;;;-0.16;100.00;95009.47;5069588;28;20045;-74
2023/02/25 04:13:19;;;;;;;58.20;9.02;;;;;;;-0.12;100.00;95021.22;5069013;28;20048;-74
2023/02/25 04:15:46;;;;;;;29.63;7.10;;;;;;;-0.07;100.00;95026.50;5068443;28;20098;-74
2023/02/25 04:18:13;;;;;;;38.88;7.25;;;;;;;-0.07;100.00;95029.19;5068643;28;20554;-74
2023/02/25 04:20:40;;;;;;;44.22;7.18;;;;;;;-0.06;100.00;95031.56;5069187;28;20494;-74
2023/02/25 04:23:07;;;;;;;54.42;8.57;;;;;;;-0.06;100.00;95038.81;5068718;28;20044;-74
2023/02/25 04:25:36;;;;;;;42.20;7.00;;;;;;;-0.05;100.00;95027.03;5069061;28;20488;-74
2023/02/25 04:28:02;;;;;;;38.33;6.47;;;;;;;-0.03;100.00;95030.22;5071848;28;20098;-74
2023/02/25 04:30:29;;;;;;;24.67;6.63;;;;;;;-0.02;100.00;95023.78;5072784;28;20052;-74
2023/02/25 04:32:55;;;;;;;40.63;7.32;;;;;;;-0.01;100.00;95023.50;5071280;28;20045;-74
2023/02/25 04:35:22;;;;;;;37.20;6.45;;;;;;;-0.02;100.00;95037.16;5072090;28;20056;-74
2023/02/25 04:37:48;;;;;;;39.33;6.70;;;;;;;0.01;100.00;95035.81;5072710;28;20040;-74
2023/02/25 04:40:18;;;;;;;45.28;7.47;;;;;;;-0.04;100.00;95029.44;5072180;28;20404;-74
2023/02/25 04:42:46;;;;;;;39.15;6.90;;;;;;;-0.02;100.00;95029.13;5072331;28;20075;-74
2023/02/25 04:45:14;;;;;;;34.67;7.32;;;;;;;-0.04;100.00;95034.78;5071944;28;20051;-74
2023/02/25 04:47:41;;;;;;;22.55;6.43;;;;;;;-0.04;100.00;95023.28;5072556;28;20049;-74
2023/02/25 04:50:10;;;;;;;36.30;7.38;;;;;;;-0.01;100.00;95022.69;5071987;28;20526;-72
2023/02/25 04:52:36;;;;;;;18.25;6.05;;;;;;;0.00;100.00;95032.34;5072581;28;20041;-74
2023/02/25 04:55:03;;;;;;;31.55;6.68;;;;;;;0.00;100.00;95029.66;5071381;28;20091;-75
2023/02/25 04:57:30;;;;;;;32.72;6.88;;;;;;;-0.01;100.00;95025.38;5072439;28;20449;-74
2023/02/25 04:59:58;;;;;;;34.30;8.05;;;;;;;-0.01;100.00;95028.03;5072236;28;20041;-74
2023/02/25 05:02:24;;;;;;;29.85;6.40;;;;;;;0.01;100.00;95030.47;5070032;28;20044;-74
2023/02/25 05:04:51;;;;;;;27.70;6.95;;;;;;;0.04;100.00;95036.03;5071860;28;20051;-74
2023/02/25 05:07:17;;;;;;;27.27;5.95;;;;;;;0.06;100.00;95033.88;5071707;28;20070;-74
2023/02/25 05:09:44;;;;;;;36.70;7.18;;;;;;;0.12;100.00;95039.97;5072184;28;20132;-74
2023/02/25 05:12:10;;;;;;;22.75;6.00;;;;;;;0.16;100.00;95031.09;5071769;28;20047;-75
2023/02/25 05:14:37;;;;;;;38.47;6.20;;;;;;;0.16;100.00;95028.41;5071639;28;20492;-72
2023/02/25 05:17:05;;;;;;;29.17;5.47;;;;;;;0.22;100.00;95038.00;5071815;28;20044;-72
2023/02/25 05:19:31;;;;;;;34.25;6.25;;;;;;;0.19;100.00;95041.22;5071919;28;20048;-72
2023/02/25 05:21:58;;;;;;;30.92;5.90;;;;;;;0.20;100.00;95044.69;5071955;28;20052;-72
2023/02/25 05:24:24;;;;;;;28.98;6.05;;;;;;;0.29;100.00;95055.59;5071384;28;20040;-72
2023/02/25 05:26:51;;;;;;;26.73;6.90;;;;;;;0.30;100.00;95057.19;5072237;28;20055;-72
2023/02/25 05:29:17;;;;;;;28.90;6.97;;;;;;;0.23;100.00;95044.13;5071628;28;20066;-72
2023/02/25 05:31:44;;;;;;;32.28;7.05;;;;;;;0.20;100.00;95056.19;5072012;28;20492;-72
2023/02/25 05:34:12;;;;;;;38.83;8.38;;;;;;;0.17;100.00;95062.13;5071030;28;20045;-72
2023/02/25 05:36:38;;;;;;;33.50;9.15;;;;;;;0.15;100.00;95063.47;5072027;28;20041;-74
2023/02/25 05:39:06;;;;;;;31.35;8.93;;;;;;;0.14;100.00;95068.03;5071604;28;20044;-75
2023/02/25 05:41:32;;;;;;;37.40;9.30;;;;;;;0.14;100.00;95060.00;5070964;28;20063;-74
2023/02/25 05:43:59;;;;;;;42.45;11.13;;;;;;;0.11;100.00;95063.28;5071311;28;20045;-72
2023/02/25 05:46:25;;;;;;;29.15;9.88;;;;;;;0.11;100.00;95071.31;5071025;28;20048;-72
2023/02/25 05:48:52;;;;;;;33.97;10.10;;;;;;;0.15;100.00;95069.63;5071264;28;20044;-74
2023/02/25 05:51:22;;;;;;;30.48;9.95;;;;;;;0.18;100.00;95063.72;5070909;28;20556;-72
2023/02/25 05:53:48;;;;;;;37.35;10.30;;;;;;;0.23;100.00;95061.00;5070845;28;20136;-74
2023/02/25 05:56:17;;;;;;;36.95;11.02;;;;;;;0.23;100.00;95066.34;5070940;28;20507;-72
2023/02/25 05:58:45;;;;;;;28.77;8.35;;;;;;;0.25;100.00;95061.50;5071355;28;20047;-74
2023/02/25 06:01:14;;;;;;;28.92;9.85;;;;;;;0.28;100.00;95078.09;5070662;28;20063;-74
2023/02/25 06:03:42;;;;;;;34.03;9.20;;;;;;;0.30;100.00;95075.91;5068266;28;20629;-74
2023/02/25 06:06:11;;;;;;;25.77;8.00;;;;;;;0.34;100.00;95091.13;5070510;28;20048;-75
2023/02/25 06:08:40;;;;;;;24.20;8.13;;;;;;;0.40;100.00;95078.50;5071257;28;20106;-74
2023/02/25 06:11:08;;;;;;;29.15;8.70;;;;;;;0.45;100.00;95081.09;5070678;28;20044;-75
2023/02/25 06:13:34;;;;;;;28.75;9.52;;;;;;;0.53;100.00;95088.53;5071643;28;20067;-72
2023/02/25 06:16:03;;;;;;;30.85;9.15;;;;;;;0.65;100.00;95088.91;5070700;28;20060;-72
2023/02/25 06:18:29;;;;;;;28.60;8.77;;;;;;;0.57;100.00;95097.56;5071105;28;20036;-72
2023/02/25 06:20:56;;;;;;;29.13;9.27;;;;;;;0.49;100.00;95098.22;5071220;28;20044;-72
2023/02/25 06:23:22;;;;;;;25.92;8.73;;;;;;;0.49;100.00;95107.03;5069953;28;20048;-74
2023/02/25 06:25:50;;;;;;;26.63;8.50;;;;;;;0.50;100.00;95107.84;5070425;28;20044;-73
2023/02/25 06:28:16;;;;;;;28.25;8.38;;;;;;;0.52;100.00;95105.66;5070224;28;20051;-74
2023/02/25 06:30:43;;;;;;;28.65;8.25;;;;;;;0.45;100.00;95111.38;5070039;28;20500;-74
2023/02/25 06:33:09;;;;;;;24.67;7.63;;;;;;;0.50;100.00;95115.88;5067536;28;20044;-72
2023/02/25 06:35:36;;;;;;;25.10;6.75;;;;;;;0.56;100.00;95120.09;5070476;28;20044;-72
2023/02/25 06:38:02;;;;;;;28.05;7.35;;;;;;;0.51;100.00;95120.13;5070027;28;20146;-72
2023/02/25 06:40:28;;;;;;;22.40;7.10;;;;;;;0.49;100.00;95117.75;5070404;28;20050;-71
2023/02/25 06:42:56;;;;;;;24.92;6.55;;;;;;;0.52;100.00;95116.38;5070522;28;20068;-71
2023/02/25 06:45:23;;;;;;;20.67;5.43;;;;;;;0.56;100.00;95117.41;5069692;28;20052;-72
2023/02/25 06:47:49;;;;;;;22.33;5.97;;;;;;;0.50;100.00;95118.56;5070571;28;20637;-72
2023/02/25 06:50:16;;;;;;;28.70;6.45;;;;;;;0.47;100.00;95121.78;5069401;28;20067;-72
2023/02/25 06:52:43;;;;;;;23.75;5.05;;;;;;;0.43;100.00;95120.78;5070255;28;20048;-74
2023/02/25 06:55:10;;;;;;;27.67;5.68;;;;;;;0.34;100.00;95117.13;5069431;28;20040;-74
2023/02/25 06:57:37;;;;;;;30.70;5.78;;;;;;;0.23;100.00;95121.78;5070241;28;20056;-74
2023/02/25 07:00:06;;;;;;;15.90;4.68;;;;;;;0.19;100.00;95126.88;5069648;28;20048;-75
2023/02/25 07:02:32;;;;;;;19.92;5.28;;;;;;;0.08;100.00;95120.03;5069997;28;20048;-74
2023/02/25 07:05:00;;;;;;;23.48;5.00;;;;;;;0.11;100.00;95122.16;5069887;28;20131;-74
2023/02/25 07:07:26;;;;;;;20.13;4.50;;;;;;;0.17;100.00;95134.41;5069681;28;20098;-74
2023/02/25 07:09:53;;;;;;;22.98;4.75;;;;;;;0.27;100.00;95130.06;5070029;28;20045;-74
2023/02/25 07:12:20;;;;;;;26.65;5.28;;;;;;;0.32;100.00;95140.72;5069108;28;20047;-74
2023/02/25 07:14:46;;;;;;;22.85;4.60;;;;;;;0.43;100.00;95139.53;5069147;28;20045;-73
2023/02/25 07:17:14;;;;;;;28.02;5.20;;;;;;;0.47;100.00;95132.50;5069558;28;20036;-74
2023/02/25 07:19:40;;;;;;;21.23;4.03;;;;;;;0.51;100.00;95131.66;5069672;28;20059;-74
2023/02/25 07:22:08;;;;;;;20.25;4.28;;;;;;;0.51;100.00;95136.22;5069606;28;20044;-75
2023/02/25 07:24:35;;;;;;;28.60;4.88;;;;;;;0.52;100.00;95137.81;5069559;28;20094;-74
2023/02/25 07:27:01;;;;;;;21.00;4.82;;;;;;;0.54;100.00;95140.22;5069717;28;20044;-77
2023/02/25 07:29:28;;;;;;;15.10;3.90;;;;;;;0.58;100.00;95136.69;5069995;28;20041;-74
2023/02/25 07:31:54;;;;;;;29.33;5.45;;;;;;;0.60;100.00;95139.06;5069702;28;20056;-74
2023/02/25 07:34:22;;;;;;;27.90;6.28;;;;;;;0.68;100.00;95139.25;5068948;28;20051;-74
2023/02/25 07:36:48;;;;;;;23.08;5.13;;;;;;;0.74;100.00;95142.69;5069566;28;20041;-74
2023/02/25 07:39:15;;;;;;;28.73;5.78;;;;;;;0.81;100.00;95139.66;5069100;28;20037;-74
2023/02/25 07:41:41;;;;;;;25.13;5.30;;;;;;;0.88;100.00;95129.38;5069900;28;20041;-72
2023/02/25 07:44:08;;;;;;;17.98;4.78;;;;;;;0.91;100.00;95128.81;5069182;28;20044;-75
2023/02/25 07:46:35;;;;;;;32.38;6.35;;;;;;;0.93;99.46;95129.31;5069333;28;20106;-74
2023/02/25 07:49:02;;;;;;;22.10;5.80;;;;;;;1.10;100.00;95140.38;5068715;28;20041;-75
2023/02/25 07:51:30;;;;;;;24.75;5.70;;;;;;;1.10;100.00;95144.91;5069480;28;20407;-72
2023/02/25 07:53:57;;;;;;;38.67;7.03;;;;;;;1.10;100.00;95151.09;5069623;28;20060;-72
2023/02/25 07:56:25;;;;;;;30.48;6.25;;;;;;;1.15;99.90;95147.53;5069055;28;20381;-74
2023/02/25 07:58:52;;;;;;;22.85;5.78;;;;;;;1.17;99.70;95153.44;5049562;28;20107;-74
2023/02/25 08:01:22;;;;;;;19.08;5.55;;;;;;;1.21;99.00;95147.19;5049643;28;20044;-72
2023/02/25 08:03:48;;;;;;;38.70;7.28;;;;;;;1.26;99.40;95133.72;5068080;28;20044;-72
2023/02/25 08:06:15;;;;;;;25.40;5.82;;;;;;;1.41;97.90;95126.53;5073145;28;20047;-72
2023/02/25 08:08:43;;;;;;;31.40;6.88;;;;;;;1.43;99.52;95135.91;5073320;28;20040;-72
2023/02/25 08:11:13;;;;;;;25.63;6.57;;;;;;;1.48;99.95;95135.03;5072833;28;20040;-74
2023/02/25 08:13:40;;;;;;;21.02;6.22;;;;;;;1.53;99.72;95125.03;5073173;28;20496;-73
2023/02/25 08:16:08;;;;;;;22.23;6.88;;;;;;;1.71;100.00;95126.09;5072725;28;20090;-75
2023/02/25 08:18:36;;;;;;;25.20;7.13;;;;;;;2.09;98.43;95126.84;5073326;28;20507;-72
2023/02/25 08:21:03;;;;;;;23.73;7.15;;;;;;;2.08;95.08;95132.50;5072484;28;20044;-73
2023/02/25 08:23:30;;;;;;;22.95;6.50;;;;;;;2.01;97.01;95127.50;5073314;28;20055;-72
2023/02/25 08:25:58;;;;;;;27.33;7.03;;;;;;;2.15;96.10;95119.50;5073027;28;20515;-71
2023/02/25 08:28:27;;;;;;;28.35;6.68;;;;;;;2.59;95.23;95118.19;5072723;28;20044;-72
2023/02/25 08:30:54;;;;;;;28.80;6.60;;;;;;;2.99;91.82;95124.69;5072838;28;20068;-72
2023/02/25 08:33:21;;;;;;;44.30;6.38;;;;;;;2.96;88.27;95121.78;5072144;28;20064;-73
2023/02/25 08:35:47;;;;;;;30.67;6.43;;;;;;;2.57;89.11;95126.56;5072572;28;20488;-72
2023/02/25 08:38:14;;;;;;;26.50;6.00;;;;;;;2.59;91.59;95112.81;5072399;28;20041;-73
2023/02/25 08:40:40;;;;;;;28.95;6.35;;;;;;;2.74;91.89;95120.59;5072525;28;20047;-72
2023/02/25 08:43:09;;;;;;;18.00;5.88;;;;;;;2.35;91.97;95119.16;5072420;28;20149;-72
2023/02/25 08:45:37;;;;;;;21.90;6.18;;;;;;;2.38;93.74;95119.66;5072807;28;20049;-71
2023/02/25 08:48:04;;;;;;;41.88;14.45;;;;;;;2.36;93.34;95122.66;5072292;28;20048;-72
2023/02/25 08:50:31;;;;;;;22.30;5.40;;;;;;;2.14;89.48;95123.28;5072249;28;20483;-71
2023/02/25 08:52:58;;;;;;;23.05;5.55;;;;;;;2.33;91.74;95121.34;5072602;28;20048;-72
2023/02/25 08:55:24;;;;;;;25.50;5.93;;;;;;;2.38;86.42;95130.41;5072078;28;20054;-72
2023/02/25 08:57:51;;;;;;;20.92;5.07;;;;;;;2.38;87.22;95133.88;5072623;28;20037;-71
2023/02/25 09:00:20;;;;;;;22.50;6.00;;;;;;;2.42;87.00;95137.56;5072164;28;20701;-72
2023/02/25 09:02:47;;;;;;;21.42;5.25;;;;;;;2.67;88.21;95125.56;5068996;28;20044;-72
2023/02/25 09:05:14;;;;;;;22.42;5.57;;;;;;;2.86;88.66;95136.22;5070647;28;20141;-72
2023/02/25 09:07:41;;;;;;;17.83;4.90;;;;;;;2.72;84.22;95128.16;5072404;28;20056;-72
2023/02/25 09:10:09;;;;;;;21.33;4.43;;;;;;;2.49;83.90;95139.88;5071605;28;20052;-72
2023/02/25 09:12:37;;;;;;;18.90;4.20;;;;;;;2.44;83.41;95137.28;5071876;28;20053;-72
2023/02/25 09:15:04;;;;;;;18.50;4.80;;;;;;;2.33;83.56;95132.06;5071487;28;20040;-72
2023/02/25 09:17:32;;;;;;;16.77;3.65;;;;;;;2.37;81.47;95142.25;5072122;28;20051;-71
2023/02/25 09:20:00;;;;;;;20.15;4.40;;;;;;;2.13;80.79;95145.84;5071890;28;20492;-73
2023/02/25 09:22:26;;;;;;;19.02;4.50;;;;;;;2.47;84.91;95142.84;5071968;28;20777;-72
2023/02/25 09:24:53;;;;;;;16.25;3.58;;;;;;;2.41;83.21;95136.00;5072242;28;20037;-71
2023/02/25 09:27:19;;;;;;;16.02;3.67;;;;;;;2.51;82.56;95137.69;5071219;28;20047;-72
2023/02/25 09:29:46;;;;;;;14.20;3.85;;;;;;;2.50;80.54;95130.72;5072150;28;20044;-72
2023/02/25 09:32:17;;;;;;;15.75;3.80;;;;;;;2.58;80.72;95132.72;5071127;28;20037;-72
2023/02/25 09:34:45;;;;;;;20.45;4.38;;;;;;;2.68;81.00;95132.53;5071614;28;20051;-71
2023/02/25 09:37:13;;;;;;;15.98;3.00;;;;;;;2.82;78.04;95125.28;5071213;28;20041;-72
2023/02/25 09:39:41;;;;;;;17.20;3.58;;;;;;;2.85;75.95;95121.19;5071440;28;20496;-72
2023/02/25 09:42:11;;;;;;;24.35;3.97;;;;;;;3.01;77.75;95141.31;5071452;28;20041;-72
2023/02/25 09:44:41;;;;;;;15.90;3.13;;;;;;;2.84;72.40;95125.78;5071503;28;20047;-71
2023/02/25 09:47:14;;;;;;;19.73;3.75;;;;;;;2.58;72.90;95138.09;5071033;28;20403;-72
2023/02/25 09:49:44;;;;;;;19.35;3.22;;;;;;;2.76;71.44;95118.38;5071201;28;20343;-71
2023/02/25 09:52:17;;;;;;;19.02;3.05;;;;;;;2.70;70.56;95114.22;5070643;28;20499;-71
2023/02/25 09:54:45;;;;;;;15.95;3.17;;;;;;;2.92;68.76;95131.53;5071365;28;20084;-71
2023/02/25 09:57:17;;;;;;;18.92;3.03;;;;;;;3.05;68.86;95131.53;5070743;28;20075;-72
2023/02/25 09:59:44;;;;;;;12.68;2.55;;;;;;;3.03;65.47;95132.94;5071511;28;20049;-71
2023/02/25 10:02:22;;;;;;;13.63;2.80;;;;;;;2.85;65.91;95126.56;5066705;28;20552;-71
2023/02/25 10:05:03;;;;;;;16.77;2.80;;;;;;;2.79;65.57;95123.19;5070898;28;20040;-71
2023/02/25 10:07:35;;;;;;;17.98;2.50;;;;;;;3.13;63.18;95113.88;5070577;28;20044;-72
2023/02/25 10:10:09;;;;;;;12.47;2.67;;;;;;;3.28;65.72;95128.91;5070810;28;20056;-74
2023/02/25 10:12:44;;;;;;;13.57;2.60;;;;;;;3.98;66.05;95122.25;5071037;28;20094;-72
2023/02/25 10:15:39;;;;;;;13.23;2.30;;;;;;;4.72;61.84;95117.13;5070147;28;20515;-72
2023/02/25 10:18:21;;;;;;;17.23;3.10;;;;;;;5.25;61.68;95113.50;5050421;28;20405;-71
2023/02/25 10:20:57;;;;;;;15.35;3.25;;;;;;;6.17;63.57;95118.84;5051153;28;20048;-72
2023/02/25 10:23:40;;;;;;;15.32;2.72;;;;;;;5.97;61.11;95112.97;5050231;28;20412;-72
2023/02/25 10:26:17;;;;;;;18.50;3.22;;;;;;;4.53;62.09;95135.44;5050052;28;20052;-72
2023/02/25 10:28:47;;;;;;;17.58;2.72;;;;;;;3.86;59.66;95118.22;5061563;28;20052;-71
2023/02/25 10:31:17;;;;;;;15.05;2.60;;;;;;;3.33;63.37;95126.91;5070128;28;20067;-72
2023/02/25 10:33:46;;;;;;;20.30;2.92;;;;;;;3.64;64.32;95116.28;5070924;28;20044;-71
2023/02/25 10:36:15;;;;;;;17.63;3.40;;;;;;;3.65;61.66;95117.91;5070202;28;20052;-72
2023/02/25 10:38:46;;;;;;;12.70;2.60;;;;;;;3.51;64.73;95121.72;5070721;28;20459;-73
2023/02/25 10:41:13;;;;;;;15.77;2.85;;;;;;;3.95;63.31;95112.09;5070097;28;20055;-74
2023/02/25 10:43:41;;;;;;;14.60;2.53;;;;;;;4.41;63.30;95117.94;5070613;28;20064;-72
2023/02/25 10:46:14;;;;;;;11.35;2.50;;;;;;;5.01;63.65;95129.31;5069986;28;20060;-72
2023/02/25 10:48:42;;;;;;;11.13;1.98;;;;;;;4.81;61.56;95120.69;5071130;28;20044;-73
2023/02/25 10:51:11;;;;;;;8.85;2.00;;;;;;;5.04;58.16;95120.59;5071736;28;20519;-72
2023/02/25 10:53:39;;;;;;;7.85;1.83;;;;;;;5.02;60.41;95110.13;5077033;28;20044;-71
2023/02/25 10:56:08;;;;;;;9.35;2.47;;;;;;;5.07;59.43;95111.88;5055815;28;20411;-72
2023/02/25 10:58:39;;;;;;;9.10;2.55;;;;;;;4.59;57.65;95113.41;5056325;28;20068;-71
2023/02/25 11:01:12;;;;;;;11.07;2.83;;;;;;;4.71;61.09;95100.16;5055456;28;20072;-72
2023/02/25 11:03:46;;;;;;;6.65;2.05;;;;;;;4.97;61.35;95091.38;5067716;28;20098;-71
2023/02/25 11:06:18;;;;;;;10.77;2.95;;;;;;;5.34;61.01;95084.63;5070055;28;20052;-72
2023/02/25 11:08:45;;;;;;;9.57;2.53;;;;;;;5.41;60.06;95084.94;5070681;28;20067;-71
2023/02/25 11:11:19;;;;;;;15.02;3.13;;;;;;;4.76;58.13;95091.16;5069867;28;20068;-71
2023/02/25 11:14:04;;;;;;;14.98;3.35;;;;;;;4.72;58.69;95090.19;5070023;28;20071;-72
2023/02/25 11:16:34;;;;;;;9.75;2.30;;;;;;;5.15;58.57;95084.13;5069932;28;20094;-73
2023/02/25 11:19:02;;;;;;;8.23;2.35;;;;;;;5.41;57.20;95073.38;5069649;28;20158;-71
2023/02/25 11:21:32;;;;;;;9.25;2.20;;;;;;;5.83;59.99;95071.00;5070146;28;20059;-71
2023/02/25 11:24:02;;;;;;;10.80;2.67;;;;;;;5.89;53.45;95073.22;5070061;28;20044;-71
2023/02/25 11:26:32;;;;;;;9.88;2.80;;;;;;;5.59;56.35;95068.78;5069998;28;20124;-71
2023/02/25 11:29:01;;;;;;;4.35;1.55;;;;;;;5.51;54.89;95059.56;5071005;28;20053;-71
2023/02/25 11:31:32;;;;;;;16.08;2.53;;;;;;;5.21;54.87;95066.66;5069355;28;20036;-71
2023/02/25 11:34:02;;;;;;;5.57;1.90;;;;;;;5.31;56.19;95068.28;5070165;28;20068;-71
2023/02/25 11:36:31;;;;;;;7.95;1.75;;;;;;;5.08;52.38;95067.59;5073775;28;20128;-71